Open Full Screen Window  High Contrast Mode
Wind Gusting 00 knots
07
April 27, 2015 1:30 PM CDT
Weather Information
Wind Direction
  110 °
Wind Speed
  07 kt (8 mph)
Wind Gust
  00 kt (0 mph)
Variable Wind
080°
140°
Altimeter
30.21 in
Visibility
10 SM
Temperature
18° C
64° F
Dewpoint
-05° C
23° F
Humidity
21%
1hr Rain Fall
00.00 in.
24hr Rain Fall
00.00 in.
Sky Condition
Clear
VFR

METAR KMDS 271830Z AUTO 11007KT 080V140 10SM CLR 18/M05 A3021 RMK AO2

*Background is not an actual portrayal of the airport.